EYW weather

Key West International Airport
Key West, Florida, United States

Public forecast

Using degrees Fahrenheit for public forecast. Weather courtesy of forecast.io.

Current aviation weather report (METAR) for Key West International Airport

Retrieved 2019/10/16 04:53 UTC (1 hour ago):

KEYW 160453Z AUTO 13009KT 10SM CLR 28/24 A2997 RMK AO2 SLP147 T02830244 403000267

Aviation forecast (TAF) for Key West International Airport

Retrieved 2019-10-16 00:24 UTC (6 hours ago):

TAF KEYW 152322Z 1600/1624 11008KT P6SM FEW025 FM160500 15006KT P6SM SCT025 FM161800 21005KT P6SM FEW025